Time;durP1;ratioP1;P1;durP2;ratioP2;P2;SDS_P1;SDS_P2;PMS_P1;PMS_P2;Temp;Humidity;BMP_temperature;BMP_pressure;BME280_temperature;BME280_humidity;BME280_pressure;Samples;Min_cycle;Max_cycle;Signal;HPM_P1;HPM_P2
2023/06/20 00:00:39;;;;;;;6.60;3.70;;;22.80;58.10;;;;;;8429359;28;19908;-54
2023/06/20 00:04:40;;;;;;;7.32;3.70;;;22.80;58.10;;;;;;8429312;28;20039;-54
2023/06/20 00:08:40;;;;;;;5.47;3.30;;;22.80;58.10;;;;;;8406563;28;20064;-53
2023/06/20 00:12:41;;;;;;;;;;;22.80;58.10;;;;;;8361527;28;20035;-53
2023/06/20 00:16:42;;;;;;;6.60;3.20;;;22.80;58.00;;;;;;8395219;28;19956;-53
2023/06/20 00:20:42;;;;;;;6.07;3.35;;;22.70;58.10;;;;;;8395383;28;20032;-54
2023/06/20 00:24:43;;;;;;;5.10;3.20;;;22.70;58.00;;;;;;8395075;28;20097;-53
2023/06/20 00:28:44;;;;;;;5.85;3.63;;;22.80;58.00;;;;;;8376787;28;20046;-54
2023/06/20 00:32:44;;;;;;;4.68;3.58;;;22.70;58.00;;;;;;8376893;28;20028;-52
2023/06/20 00:36:45;;;;;;;5.55;3.08;;;22.80;58.00;;;;;;8394636;28;20020;-53
2023/06/20 00:40:49;;;;;;;4.53;3.30;;;22.70;57.90;;;;;;8394594;28;20042;-54
2023/06/20 00:44:50;;;;;;;5.60;3.33;;;22.70;58.00;;;;;;8394287;28;20043;-54
2023/06/20 00:48:51;;;;;;;5.03;3.65;;;22.70;57.90;;;;;;8394198;28;20041;-54
2023/06/20 00:53:11;;;;;;;8.13;3.90;;;22.70;58.40;;;;;;8394277;28;20029;-53
2023/06/20 00:57:13;;;;;;;8.15;3.35;;;22.70;57.90;;;;;;8394939;28;20111;-54
2023/06/20 01:01:16;;;;;;;7.05;3.40;;;22.70;57.90;;;;;;8393821;28;20390;-54
2023/06/20 01:05:17;;;;;;;4.43;3.25;;;22.70;57.90;;;;;;8393888;28;20111;-54
2023/06/20 01:09:28;;;;;;;6.85;3.35;;;22.70;57.90;;;;;;8420873;28;20066;-53
2023/06/20 01:13:34;;;;;;;5.82;2.97;;;22.70;57.90;;;;;;8409200;28;20488;-54
2023/06/20 01:17:44;;;;;;;4.30;3.40;;;22.70;57.80;;;;;;8426795;28;20032;-53
2023/06/20 01:21:52;;;;;;;4.10;2.90;;;22.70;57.80;;;;;;8426917;28;20560;-53
2023/06/20 01:26:10;;;;;;;4.45;3.00;;;22.70;57.90;;;;;;8426966;28;20036;-54
2023/06/20 01:30:18;;;;;;;4.93;3.10;;;22.70;57.80;;;;;;8427684;27;20028;-53
2023/06/20 01:34:28;;;;;;;5.32;3.10;;;22.70;57.80;;;;;;8426834;28;20024;-53
2023/06/20 01:38:32;;;;;;;6.73;3.50;;;22.70;57.80;;;;;;8426398;28;20028;-54
2023/06/20 01:42:34;;;;;;;4.28;3.22;;;22.70;57.80;;;;;;8426129;28;20024;-53
2023/06/20 01:46:35;;;;;;;4.57;3.03;;;22.60;57.80;;;;;;8426481;28;20032;-54
2023/06/20 01:50:37;;;;;;;4.93;3.42;;;22.70;57.80;;;;;;8426013;28;20111;-54
2023/06/20 01:54:41;;;;;;;5.25;3.10;;;22.70;57.80;;;;;;8426231;28;20039;-53
2023/06/20 01:58:42;;;;;;;3.78;2.95;;;22.70;57.80;;;;;;8426972;28;20136;-54
2023/06/20 02:02:45;;;;;;;3.83;2.70;;;22.70;57.80;;;;;;8426114;28;20028;-54
2023/06/20 02:06:46;;;;;;;3.90;2.92;;;22.70;57.70;;;;;;8425716;28;20052;-53
2023/06/20 02:10:48;;;;;;;4.65;2.92;;;22.60;57.70;;;;;;8425814;28;20032;-54
2023/06/20 02:14:51;;;;;;;5.03;2.97;;;22.70;57.80;;;;;;8425755;28;20082;-53
2023/06/20 02:18:52;;;;;;;4.65;3.20;;;22.70;57.80;;;;;;8425656;28;20043;-53
2023/06/20 02:22:55;;;;;;;4.07;2.80;;;22.60;57.70;;;;;;8425945;28;20028;-54
2023/06/20 02:26:58;;;;;;;4.85;2.78;;;22.60;57.70;;;;;;8426439;28;20119;-54
2023/06/20 02:31:00;;;;;;;5.90;3.08;;;22.60;57.80;;;;;;8425517;28;20036;-54
2023/06/20 02:35:02;;;;;;;5.53;2.90;;;22.60;57.80;;;;;;8425827;28;20040;-53
2023/06/20 02:39:04;;;;;;;3.20;2.80;;;22.60;57.80;;;;;;8425831;28;20138;-53
2023/06/20 02:43:06;;;;;;;4.65;2.78;;;22.60;58.30;;;;;;8425455;28;20063;-54
2023/06/20 02:47:35;;;;;;;3.97;2.92;;;22.60;57.80;;;;;;8425416;28;20500;-54
2023/06/20 02:51:49;;;;;;;4.15;2.90;;;22.60;57.70;;;;;;8426133;28;20035;-54
2023/06/20 02:55:54;;;;;;;4.18;2.92;;;22.60;57.70;;;;;;8431495;28;20020;-53
2023/06/20 03:00:05;;;;;;;3.40;2.53;;;22.60;57.70;;;;;;8432217;27;20432;-54
2023/06/20 03:04:07;;;;;;;2.95;2.60;;;22.60;57.70;;;;;;8431186;28;20032;-54
2023/06/20 03:08:08;;;;;;;3.40;2.72;;;22.60;57.70;;;;;;8413014;28;20062;-54
2023/06/20 03:12:09;;;;;;;2.80;2.40;;;22.60;57.70;;;;;;8431140;28;20064;-54
2023/06/20 03:16:09;;;;;;;4.68;3.03;;;22.60;57.70;;;;;;8431163;28;20036;-54
2023/06/20 03:20:11;;;;;;;3.38;2.58;;;22.60;57.70;;;;;;8430764;28;20044;-54
2023/06/20 03:24:11;;;;;;;;;;;22.60;57.70;;;;;;8430979;28;20024;-53
2023/06/20 03:28:12;;;;;;;3.80;2.63;;;22.60;57.70;;;;;;8431215;27;19908;-53
2023/06/20 03:32:12;;;;;;;3.60;2.67;;;22.60;57.70;;;;;;8430600;28;20089;-54
2023/06/20 03:36:13;;;;;;;2.47;2.15;;;22.60;57.60;;;;;;8430305;28;20474;-53
2023/06/20 03:40:14;;;;;;;2.58;2.33;;;22.60;57.60;;;;;;8430371;28;20072;-53
2023/06/20 03:44:14;;;;;;;3.55;2.70;;;22.60;57.60;;;;;;8430083;28;20074;-54
2023/06/20 03:48:15;;;;;;;3.85;2.60;;;22.60;57.60;;;;;;8429812;28;20090;-54
2023/06/20 03:52:16;;;;;;;5.57;2.80;;;22.60;57.60;;;;;;8411582;28;20119;-54
2023/06/20 03:56:16;;;;;;;3.53;2.78;;;22.60;57.70;;;;;;8429930;28;20085;-54
2023/06/20 04:00:17;;;;;;;4.60;2.47;;;22.60;57.70;;;;;;8430183;27;20370;-53
2023/06/20 04:04:19;;;;;;;2.40;2.15;;;22.60;57.70;;;;;;8411409;28;20036;-54
2023/06/20 04:08:19;;;;;;;2.83;2.55;;;22.60;57.70;;;;;;8429049;28;20048;-53
2023/06/20 04:12:20;;;;;;;3.50;2.60;;;22.60;57.70;;;;;;8428959;28;20090;-54
2023/06/20 04:16:21;;;;;;;3.30;2.35;;;22.60;57.70;;;;;;8428979;28;20024;-54
2023/06/20 04:20:22;;;;;;;3.50;2.30;;;22.60;57.70;;;;;;8428837;28;20161;-54
2023/06/20 04:24:22;;;;;;;2.97;2.40;;;22.60;57.70;;;;;;8428517;28;20036;-54
2023/06/20 04:28:23;;;;;;;3.22;2.50;;;22.60;57.60;;;;;;8429754;28;20085;-53
2023/06/20 04:32:24;;;;;;;3.15;2.30;;;22.60;57.60;;;;;;8428522;28;20120;-54
2023/06/20 04:36:24;;;;;;;2.45;2.00;;;22.60;57.60;;;;;;8410297;28;20028;-54
2023/06/20 04:40:26;;;;;;;2.95;2.40;;;22.60;57.60;;;;;;8428606;28;20055;-54
2023/06/20 04:44:27;;;;;;;4.82;2.55;;;22.60;57.60;;;;;;8428023;28;20059;-53
2023/06/20 04:48:35;;;;;;;4.10;2.15;;;22.60;57.60;;;;;;8428015;28;20481;-53
2023/06/20 04:52:37;;;;;;;2.80;2.00;;;22.60;57.60;;;;;;8427913;28;20042;-53
2023/06/20 04:56:40;;;;;;;3.00;2.30;;;22.60;57.60;;;;;;8428719;28;20556;-53
2023/06/20 05:00:41;;;;;;;3.15;2.47;;;22.60;57.60;;;;;;8427488;28;20097;-54
2023/06/20 05:04:41;;;;;;;2.47;2.05;;;22.60;57.60;;;;;;8409485;28;20044;-53
2023/06/20 05:08:43;;;;;;;2.85;2.30;;;22.60;57.60;;;;;;8427426;28;20131;-54
2023/06/20 05:12:43;;;;;;;2.70;2.22;;;22.60;57.60;;;;;;8427457;28;20111;-53
2023/06/20 05:16:44;;;;;;;3.60;2.13;;;22.60;57.60;;;;;;8426754;28;20473;-53
2023/06/20 05:20:46;;;;;;;2.78;2.08;;;22.60;57.60;;;;;;8427368;28;20102;-53
2023/06/20 05:24:47;;;;;;;3.83;2.50;;;22.60;57.60;;;;;;8427117;28;20123;-53
2023/06/20 05:28:48;;;;;;;2.88;2.00;;;22.60;57.60;;;;;;8427688;28;20477;-54
2023/06/20 05:32:49;;;;;;;3.45;2.03;;;22.50;57.60;;;;;;8426714;28;20401;-54
2023/06/20 05:36:49;;;;;;;2.28;1.95;;;22.50;57.60;;;;;;8426889;28;20040;-53
2023/06/20 05:40:51;;;;;;;2.40;1.90;;;22.60;57.70;;;;;;8426608;28;20115;-54
2023/06/20 05:44:52;;;;;;;2.47;2.03;;;22.50;57.60;;;;;;8426487;28;20493;-54
2023/06/20 05:48:52;;;;;;;3.50;2.60;;;22.60;57.70;;;;;;8426587;28;20437;-54
2023/06/20 05:52:53;;;;;;;2.33;2.03;;;22.50;57.60;;;;;;8426422;28;20077;-53
2023/06/20 05:56:56;;;;;;;2.05;1.85;;;22.50;57.60;;;;;;8427211;28;20478;-53
2023/06/20 06:00:58;;;;;;;2.33;2.03;;;22.50;57.60;;;;;;8426143;28;20040;-54
2023/06/20 06:04:59;;;;;;;2.22;2.03;;;22.50;57.60;;;;;;8426231;28;20040;-54
2023/06/20 06:09:00;;;;;;;2.75;2.30;;;22.60;57.60;;;;;;8426249;28;20048;-53
2023/06/20 06:13:00;;;;;;;2.47;2.00;;;22.60;57.60;;;;;;8426185;28;20050;-54
2023/06/20 06:17:01;;;;;;;2.67;2.00;;;22.60;57.60;;;;;;8425875;28;20078;-54
2023/06/20 06:21:02;;;;;;;3.45;2.03;;;22.50;57.50;;;;;;8407913;28;20050;-54
2023/06/20 06:25:03;;;;;;;2.42;2.10;;;22.50;57.50;;;;;;8425820;28;20032;-54
2023/06/20 06:29:04;;;;;;;2.30;1.83;;;22.60;57.60;;;;;;8431343;27;20039;-54
2023/06/20 06:33:07;;;;;;;3.55;2.35;;;22.50;57.60;;;;;;8432266;28;20065;-54
2023/06/20 06:37:09;;;;;;;2.28;2.08;;;22.60;57.60;;;;;;8432293;28;20036;-53
2023/06/20 06:41:10;;;;;;;2.65;2.13;;;22.60;57.60;;;;;;8432294;28;20059;-53
2023/06/20 06:45:11;;;;;;;2.65;1.73;;;22.60;57.60;;;;;;8431856;28;20032;-54
2023/06/20 06:49:11;;;;;;;2.25;1.88;;;22.60;57.50;;;;;;8431800;28;20060;-54
2023/06/20 06:53:12;;;;;;;3.25;2.30;;;22.60;57.50;;;;;;8431631;28;20146;-54
2023/06/20 06:57:13;;;;;;;3.25;2.33;;;22.50;57.50;;;;;;8432644;27;20469;-54
2023/06/20 07:01:13;;;;;;;2.17;1.98;;;22.50;57.50;;;;;;8413389;28;20036;-54
2023/06/20 07:05:14;;;;;;;2.13;1.88;;;22.50;57.50;;;;;;8431424;28;20114;-53
2023/06/20 07:09:15;;;;;;;2.05;1.90;;;22.50;57.60;;;;;;8430697;28;20048;-54
2023/06/20 07:13:16;;;;;;;2.05;1.70;;;22.50;57.60;;;;;;8431135;28;20077;-54
2023/06/20 07:17:16;;;;;;;2.75;2.17;;;22.50;57.60;;;;;;8430869;28;20032;-54
2023/06/20 07:21:17;;;;;;;2.10;1.77;;;22.50;57.60;;;;;;8412806;28;20122;-53
2023/06/20 07:25:19;;;;;;;3.05;2.28;;;22.50;57.60;;;;;;8430673;28;20031;-53
2023/06/20 07:29:20;;;;;;;3.63;2.45;;;22.50;57.50;;;;;;8431167;28;20036;-54
2023/06/20 07:33:20;;;;;;;2.13;1.85;;;22.50;57.50;;;;;;8430730;28;20447;-54
2023/06/20 07:37:21;;;;;;;2.45;1.85;;;22.50;57.50;;;;;;8429779;28;20068;-54
2023/06/20 07:41:22;;;;;;;3.10;2.10;;;22.50;57.50;;;;;;8430304;28;20067;-53
2023/06/20 07:45:22;;;;;;;3.22;2.00;;;22.60;58.00;;;;;;8430128;28;20043;-54
2023/06/20 07:49:23;;;;;;;2.22;1.77;;;22.60;57.50;;;;;;8429831;28;20086;-54
2023/06/20 07:53:24;;;;;;;2.10;1.90;;;22.60;57.50;;;;;;8429590;28;20101;-54
2023/06/20 07:57:24;;;;;;;2.58;1.90;;;22.60;57.50;;;;;;8412702;27;20070;-53
2023/06/20 08:01:25;;;;;;;2.10;1.85;;;22.60;57.50;;;;;;8429528;28;20032;-54
2023/06/20 08:05:26;;;;;;;2.42;2.10;;;22.60;57.50;;;;;;8429627;28;20032;-54
2023/06/20 08:09:27;;;;;;;2.72;2.00;;;22.50;57.40;;;;;;8429171;28;20126;-53
2023/06/20 08:13:27;;;;;;;2.20;1.92;;;22.60;57.50;;;;;;8429511;28;20036;-53
2023/06/20 08:17:28;;;;;;;2.13;1.92;;;22.60;57.50;;;;;;8428990;28;20081;-52
2023/06/20 08:21:29;;;;;;;2.65;1.88;;;22.50;57.40;;;;;;8429318;28;20055;-53
2023/06/20 08:25:29;;;;;;;2.45;1.80;;;22.60;57.50;;;;;;8429046;28;20408;-53
2023/06/20 08:29:30;;;;;;;1.75;1.52;;;22.50;57.40;;;;;;8429361;28;20028;-53
2023/06/20 08:33:31;;;;;;;1.98;1.77;;;22.60;57.50;;;;;;8428785;28;20120;-53
2023/06/20 08:37:32;;;;;;;2.33;1.95;;;22.50;57.50;;;;;;8428577;28;20031;-55
2023/06/20 08:41:32;;;;;;;;;;;22.60;57.60;;;;;;8429158;28;20040;-53
2023/06/20 08:45:33;;;;;;;2.63;1.93;;;22.50;57.50;;;;;;8428319;28;19908;-53
2023/06/20 08:49:34;;;;;;;2.10;1.90;;;22.50;57.50;;;;;;8427381;28;20040;-53
2023/06/20 08:53:36;;;;;;;1.98;1.80;;;22.60;57.50;;;;;;8427945;28;20039;-54
2023/06/20 08:57:36;;;;;;;1.77;1.60;;;22.60;57.50;;;;;;8439280;27;20032;-53
2023/06/20 09:01:37;;;;;;;2.05;1.77;;;22.60;57.50;;;;;;8461394;28;20062;-53
2023/06/20 09:05:42;;;;;;;2.00;1.75;;;22.60;57.50;;;;;;8461929;28;20046;-54
2023/06/20 09:09:43;;;;;;;2.17;1.70;;;22.50;57.40;;;;;;8460842;28;20127;-54
2023/06/20 09:13:44;;;;;;;1.92;1.80;;;22.60;57.40;;;;;;8460801;28;20031;-53
2023/06/20 09:17:48;;;;;;;2.08;1.60;;;22.60;57.40;;;;;;8442931;28;20031;-54
2023/06/20 09:21:49;;;;;;;2.15;1.95;;;22.60;57.40;;;;;;8461016;28;20525;-53
2023/06/20 09:25:50;;;;;;;1.90;1.63;;;22.50;57.40;;;;;;8460873;28;20366;-54
2023/06/20 09:29:52;;;;;;;2.65;1.80;;;22.50;57.40;;;;;;8432601;28;20529;-53
2023/06/20 09:33:53;;;;;;;2.40;1.85;;;22.60;57.40;;;;;;8426668;28;20115;-54
2023/06/20 09:37:53;;;;;;;;;;;22.50;57.30;;;;;;8427219;28;20504;-55
2023/06/20 09:41:54;;;;;;;2.47;1.73;;;22.50;57.40;;;;;;8426762;28;19973;-54
2023/06/20 09:45:55;;;;;;;1.92;1.67;;;22.60;57.40;;;;;;8426398;28;20040;-54
2023/06/20 09:49:58;;;;;;;1.38;1.27;;;22.60;57.40;;;;;;8408924;28;20032;-54
2023/06/20 09:54:05;;;;;;;1.83;1.65;;;22.60;57.40;;;;;;8426221;28;20485;-54
2023/06/20 09:58:07;;;;;;;2.30;1.90;;;22.60;57.40;;;;;;8441584;28;20020;-54
2023/06/20 10:02:09;;;;;;;2.70;1.88;;;22.60;57.40;;;;;;8459751;28;20457;-53
2023/06/20 10:06:10;;;;;;;1.88;1.65;;;22.60;57.90;;;;;;8459500;28;20595;-54
2023/06/20 10:10:13;;;;;;;1.42;1.33;;;22.60;57.40;;;;;;8459861;28;20115;-54
2023/06/20 10:14:14;;;;;;;2.03;1.80;;;22.60;57.50;;;;;;8459684;28;20024;-54
2023/06/20 10:18:36;;;;;;;1.60;1.50;;;22.50;57.40;;;;;;8459616;28;20511;-54
2023/06/20 10:22:38;;;;;;;;;;;22.50;57.40;;;;;;8459969;28;20131;-54
2023/06/20 10:26:38;;;;;;;1.65;1.55;;;22.50;57.40;;;;;;8457728;28;19915;-54
2023/06/20 10:30:54;;;;;;;1.40;1.30;;;22.60;57.40;;;;;;8407392;28;20085;-54
2023/06/20 10:34:54;;;;;;;1.70;1.60;;;22.60;57.40;;;;;;8425788;28;20036;-54
2023/06/20 10:38:56;;;;;;;1.90;1.73;;;22.60;57.40;;;;;;8425349;28;20082;-54
2023/06/20 10:42:57;;;;;;;1.75;1.60;;;22.60;57.40;;;;;;8425720;28;20039;-54
2023/06/20 10:46:58;;;;;;;1.70;1.60;;;22.60;57.40;;;;;;8425845;28;20067;-53
2023/06/20 10:51:01;;;;;;;1.67;1.58;;;22.60;57.40;;;;;;8425352;28;20124;-53
2023/06/20 10:55:03;;;;;;;1.77;1.60;;;22.60;57.40;;;;;;8425256;28;20036;-54
2023/06/20 10:59:11;;;;;;;1.50;1.40;;;22.60;57.40;;;;;;8448996;28;20036;-55
2023/06/20 11:03:12;;;;;;;1.88;1.60;;;22.60;57.40;;;;;;8459094;28;20019;-54
2023/06/20 11:07:12;;;;;;;1.95;1.65;;;22.60;57.40;;;;;;8458840;28;20059;-54
2023/06/20 11:11:13;;;;;;;1.45;1.35;;;22.60;57.40;;;;;;8458855;28;20084;-53
2023/06/20 11:15:21;;;;;;;1.88;1.67;;;22.60;57.30;;;;;;8463319;28;20027;-54
2023/06/20 11:19:23;;;;;;;1.50;1.40;;;22.60;57.30;;;;;;8464689;28;20031;-54
2023/06/20 11:23:34;;;;;;;2.05;1.60;;;22.60;57.30;;;;;;8446219;28;20024;-54
2023/06/20 11:27:36;;;;;;;2.28;1.77;;;22.60;57.30;;;;;;8436247;27;20115;-54
2023/06/20 11:31:36;;;;;;;;;;;22.60;57.30;;;;;;8430978;28;20040;-54
2023/06/20 11:35:54;;;;;;;2.10;1.47;;;22.60;57.30;;;;;;8430166;28;19912;-54
2023/06/20 11:39:55;;;;;;;1.83;1.65;;;22.60;57.40;;;;;;8430457;28;20028;-55
2023/06/20 11:43:55;;;;;;;;;;;22.60;57.40;;;;;;8412551;28;20040;-54
2023/06/20 11:48:16;;;;;;;1.93;1.50;;;22.60;57.40;;;;;;8430046;28;20445;-54
2023/06/20 11:52:28;;;;;;;1.42;1.33;;;22.50;57.40;;;;;;8429929;28;20117;-53
2023/06/20 11:56:28;;;;;;;1.40;1.30;;;22.60;57.40;;;;;;8430476;27;20028;-54
2023/06/20 12:00:31;;;;;;;2.15;1.60;;;22.50;57.30;;;;;;8429593;28;20043;-54
2023/06/20 12:04:32;;;;;;;2.20;1.63;;;22.60;57.90;;;;;;8411741;28;20115;-53
2023/06/20 12:08:35;;;;;;;1.70;1.60;;;22.60;57.30;;;;;;8429076;28;20539;-54
2023/06/20 12:12:36;;;;;;;1.50;1.40;;;22.60;57.30;;;;;;8429447;28;20032;-52
2023/06/20 12:16:36;;;;;;;2.33;1.60;;;22.60;57.30;;;;;;8428891;28;20032;-54
2023/06/20 12:20:37;;;;;;;1.65;1.52;;;22.60;57.40;;;;;;8428757;28;20500;-53
2023/06/20 12:24:38;;;;;;;1.50;1.40;;;22.60;57.30;;;;;;8427672;28;20089;-54
2023/06/20 12:28:40;;;;;;;1.55;1.42;;;22.60;57.30;;;;;;8429507;27;20392;-54
2023/06/20 12:32:41;;;;;;;1.52;1.40;;;22.60;57.30;;;;;;8428552;28;20111;-54
2023/06/20 12:36:42;;;;;;;1.60;1.50;;;22.60;57.30;;;;;;8428506;28;20028;-54
2023/06/20 12:40:44;;;;;;;1.48;1.35;;;22.60;57.30;;;;;;8428250;28;20039;-54
2023/06/20 12:44:44;;;;;;;1.52;1.20;;;22.60;57.20;;;;;;8428057;28;20044;-54
2023/06/20 12:48:45;;;;;;;1.40;1.25;;;22.60;57.20;;;;;;8428506;28;20032;-53
2023/06/20 12:52:46;;;;;;;1.40;1.20;;;22.60;57.20;;;;;;8427682;28;20065;-53
2023/06/20 12:56:46;;;;;;;1.58;1.38;;;22.60;57.20;;;;;;8432126;28;20085;-54
2023/06/20 13:00:47;;;;;;;1.52;1.40;;;22.60;57.20;;;;;;8461171;28;20043;-53
2023/06/20 13:04:51;;;;;;;2.78;1.33;;;22.60;57.20;;;;;;8461190;28;20039;-53
2023/06/20 13:08:52;;;;;;;1.67;1.30;;;22.60;57.20;;;;;;8460990;28;20052;-54
2023/06/20 13:12:54;;;;;;;1.70;1.60;;;22.60;57.20;;;;;;8461003;28;20042;-53
2023/06/20 13:16:58;;;;;;;1.30;1.20;;;22.60;57.30;;;;;;8460731;28;20049;-53
2023/06/20 13:20:58;;;;;;;1.88;1.63;;;22.60;57.20;;;;;;8460831;28;20092;-53
2023/06/20 13:24:59;;;;;;;1.48;1.25;;;22.60;57.20;;;;;;8442376;28;20555;-53
2023/06/20 13:29:00;;;;;;;1.83;1.45;;;22.60;57.10;;;;;;8442331;28;20035;-54
2023/06/20 13:33:02;;;;;;;1.38;1.27;;;22.60;57.10;;;;;;8460613;28;20112;-54
2023/06/20 13:37:03;;;;;;;2.35;1.50;;;22.60;57.10;;;;;;8460095;28;20594;-53
2023/06/20 13:41:04;;;;;;;1.67;1.20;;;22.60;57.10;;;;;;8442217;28;20710;-54
2023/06/20 13:45:07;;;;;;;1.75;1.40;;;22.60;57.10;;;;;;8460072;28;20027;-54
2023/06/20 13:49:08;;;;;;;1.52;1.17;;;22.60;57.10;;;;;;8460176;28;20032;-52
2023/06/20 13:53:09;;;;;;;1.38;1.27;;;22.60;57.10;;;;;;8441980;28;20044;-53
2023/06/20 13:57:10;;;;;;;1.60;1.48;;;22.60;57.10;;;;;;8460558;28;20028;-53
2023/06/20 14:01:13;;;;;;;1.48;1.35;;;22.60;57.10;;;;;;8441950;28;20024;-54
2023/06/20 14:05:14;;;;;;;1.50;1.38;;;22.60;57.10;;;;;;8460268;28;20036;-54
2023/06/20 14:09:16;;;;;;;1.40;1.25;;;22.60;57.00;;;;;;8459402;28;20466;-54
2023/06/20 14:13:17;;;;;;;2.05;1.40;;;22.70;57.10;;;;;;8459944;28;20067;-54
2023/06/20 14:17:18;;;;;;;1.33;1.23;;;22.60;57.10;;;;;;8459436;28;20034;-53
2023/06/20 14:21:19;;;;;;;1.67;1.42;;;22.60;57.10;;;;;;8459843;28;20035;-54
2023/06/20 14:25:19;;;;;;;1.42;1.25;;;22.70;57.10;;;;;;8459583;28;20040;-53
2023/06/20 14:29:20;;;;;;;2.70;1.30;;;22.70;57.10;;;;;;8459724;28;20508;-53
2023/06/20 14:33:21;;;;;;;1.27;1.17;;;22.70;57.00;;;;;;8459601;28;20509;-54
2023/06/20 14:37:23;;;;;;;1.63;1.40;;;22.60;57.60;;;;;;8459475;28;20027;-54
2023/06/20 14:41:23;;;;;;;1.40;1.30;;;22.70;57.00;;;;;;8459275;28;20047;-53
2023/06/20 14:45:24;;;;;;;1.30;1.20;;;22.70;57.00;;;;;;8459360;28;20035;-54
2023/06/20 14:49:25;;;;;;;1.50;1.33;;;22.70;57.10;;;;;;8462699;28;20063;-53
2023/06/20 14:53:26;;;;;;;1.40;1.30;;;22.70;57.10;;;;;;8465482;28;20106;-54
2023/06/20 14:57:27;;;;;;;1.20;1.10;;;22.60;57.00;;;;;;8466149;28;20035;-54
2023/06/20 15:01:27;;;;;;;1.27;1.17;;;22.70;57.10;;;;;;8465147;28;20102;-53
2023/06/20 15:05:28;;;;;;;1.50;1.40;;;22.70;57.10;;;;;;8465725;28;20470;-54
2023/06/20 15:09:29;;;;;;;1.65;1.30;;;22.70;57.10;;;;;;8465013;28;20062;-54
2023/06/20 15:13:29;;;;;;;1.73;1.58;;;22.60;57.10;;;;;;8465225;28;20057;-53
2023/06/20 15:17:30;;;;;;;1.50;1.40;;;22.60;57.10;;;;;;8465118;28;20053;-54
2023/06/20 15:21:31;;;;;;;1.30;1.20;;;22.60;57.10;;;;;;8464710;28;20380;-53
2023/06/20 15:25:32;;;;;;;1.40;1.30;;;22.70;57.10;;;;;;8446313;28;20027;-53
2023/06/20 15:29:32;;;;;;;1.80;1.27;;;22.70;57.10;;;;;;8464575;27;20126;-54
2023/06/20 15:33:33;;;;;;;1.30;1.20;;;22.60;57.10;;;;;;8464342;28;20115;-53
2023/06/20 15:37:34;;;;;;;;;;;22.60;57.10;;;;;;8465104;28;20024;-53
2023/06/20 15:41:35;;;;;;;1.57;1.00;;;22.70;57.10;;;;;;8464463;28;19957;-53
2023/06/20 15:45:35;;;;;;;1.10;1.00;;;22.70;57.20;;;;;;8463634;28;20024;-53
2023/06/20 15:49:36;;;;;;;1.05;0.95;;;22.70;57.20;;;;;;8463598;28;20055;-53
2023/06/20 15:53:38;;;;;;;1.30;1.10;;;22.70;57.20;;;;;;8463622;28;20031;-53
2023/06/20 15:57:39;;;;;;;2.17;1.17;;;22.60;57.10;;;;;;8463680;28;20036;-53
2023/06/20 16:01:39;;;;;;;1.73;1.10;;;22.60;57.20;;;;;;8463243;28;20038;-53
2023/06/20 16:05:40;;;;;;;1.38;1.27;;;22.60;57.20;;;;;;8463116;28;20104;-53
2023/06/20 16:09:41;;;;;;;1.10;1.00;;;22.60;57.20;;;;;;8462915;28;20410;-53
2023/06/20 16:13:41;;;;;;;1.35;1.10;;;22.60;57.20;;;;;;8463229;28;20076;-54
2023/06/20 16:17:43;;;;;;;1.35;1.20;;;22.60;57.20;;;;;;8444816;28;20035;-54
2023/06/20 16:21:44;;;;;;;1.10;1.00;;;22.60;57.20;;;;;;8462983;28;20035;-54
2023/06/20 16:25:44;;;;;;;1.83;1.30;;;22.60;57.20;;;;;;8462888;28;20031;-53
2023/06/20 16:29:45;;;;;;;1.45;1.35;;;22.60;57.20;;;;;;8463543;28;20115;-54
2023/06/20 16:33:46;;;;;;;1.42;1.33;;;22.60;57.30;;;;;;8462644;28;20030;-53
2023/06/20 16:37:47;;;;;;;1.55;1.38;;;22.60;57.20;;;;;;8462032;28;20035;-54
2023/06/20 16:41:48;;;;;;;1.33;1.17;;;22.60;57.20;;;;;;8461773;28;20063;-53
2023/06/20 16:45:49;;;;;;;1.40;1.30;;;22.60;57.20;;;;;;8461706;28;20039;-53
2023/06/20 16:49:49;;;;;;;1.33;1.20;;;22.60;57.20;;;;;;8461901;28;20035;-53
2023/06/20 16:53:50;;;;;;;1.23;1.13;;;22.60;57.20;;;;;;8461644;28;20036;-53
2023/06/20 16:57:50;;;;;;;2.25;1.05;;;22.60;57.20;;;;;;8461974;27;20035;-53
2023/06/20 17:01:51;;;;;;;1.33;1.10;;;22.70;57.80;;;;;;8461303;28;20495;-53
2023/06/20 17:05:52;;;;;;;1.60;1.50;;;22.60;57.60;;;;;;8461304;28;20031;-53
2023/06/20 17:09:53;;;;;;;3.28;1.67;;;22.60;57.40;;;;;;8460716;28;20139;-53
2023/06/20 17:13:54;;;;;;;3.20;2.72;;;22.60;58.20;;;;;;8460714;28;20680;-53
2023/06/20 17:17:59;;;;;;;6.10;3.05;;;22.70;60.20;;;;;;8460602;28;20393;-52
2023/06/20 17:22:00;;;;;;;7.47;3.30;;;22.70;61.50;;;;;;8460569;28;20043;-54
2023/06/20 17:26:00;;;;;;;5.38;3.03;;;22.80;63.10;;;;;;8442359;28;20346;-56
2023/06/20 17:30:01;;;;;;;6.88;3.72;;;22.90;61.60;;;;;;8453380;27;20031;-53
2023/06/20 17:34:03;;;;;;;;;;;23.00;62.50;;;;;;8460648;28;20019;-54
2023/06/20 17:38:03;;;;;;;8.18;4.15;;;23.10;63.60;;;;;;8459360;28;19919;-52
2023/06/20 17:42:04;;;;;;;6.95;3.75;;;23.10;63.10;;;;;;8459202;28;20034;-55
2023/06/20 17:46:05;;;;;;;10.65;3.90;;;23.20;63.20;;;;;;8459359;28;20535;-53
2023/06/20 17:50:07;;;;;;;5.82;3.72;;;23.20;63.20;;;;;;8460213;28;20358;-55
2023/06/20 17:54:08;;;;;;;8.25;4.07;;;23.20;62.90;;;;;;8459883;28;20027;-56
2023/06/20 17:58:09;;;;;;;10.55;4.40;;;23.20;63.20;;;;;;8427093;28;20043;-56
2023/06/20 18:02:12;;;;;;;8.00;4.53;;;23.30;63.20;;;;;;8426076;28;20097;-51
2023/06/20 18:06:13;;;;;;;8.43;4.38;;;23.30;63.10;;;;;;8451896;28;20039;-54
2023/06/20 18:10:13;;;;;;;7.97;4.88;;;23.30;63.50;;;;;;8459646;28;20027;-52
2023/06/20 18:14:15;;;;;;;;;;;23.30;63.50;;;;;;8439788;28;20043;-57
2023/06/20 18:18:15;;;;;;;11.45;5.43;;;23.30;63.90;;;;;;8441844;28;19904;-57
2023/06/20 18:22:16;;;;;;;8.68;4.40;;;23.30;64.60;;;;;;8461434;28;20027;-59
2023/06/20 18:26:17;;;;;;;10.40;4.63;;;23.30;63.10;;;;;;8467359;28;20494;-52
2023/06/20 18:30:18;;;;;;;11.02;4.95;;;23.40;63.70;;;;;;8433637;28;20373;-56
2023/06/20 18:34:18;;;;;;;9.80;5.95;;;23.40;63.40;;;;;;8417354;28;20111;-55
2023/06/20 18:38:19;;;;;;;11.38;5.15;;;23.40;65.00;;;;;;8431675;28;20063;-54
2023/06/20 18:42:20;;;;;;;10.82;5.15;;;23.40;64.20;;;;;;8432056;28;20477;-53
2023/06/20 18:46:21;;;;;;;;;;;23.40;63.50;;;;;;8442300;28;20032;-54
2023/06/20 18:50:22;;;;;;;10.90;4.97;;;23.30;63.60;;;;;;8434780;28;20275;-51
2023/06/20 18:54:22;;;;;;;8.93;5.68;;;23.30;63.70;;;;;;8464973;28;20100;-51
2023/06/20 18:58:23;;;;;;;12.20;5.03;;;23.20;63.30;;;;;;8448766;27;20068;-51
2023/06/20 19:02:24;;;;;;;10.18;5.35;;;23.30;63.50;;;;;;8431272;28;20085;-52
2023/06/20 19:06:24;;;;;;;;;;;23.30;63.20;;;;;;8431568;28;20028;-53
2023/06/20 19:10:25;;;;;;;14.33;5.10;;;23.20;63.10;;;;;;8428637;28;19919;-54
2023/06/20 19:14:26;;;;;;;;;;;23.30;63.50;;;;;;8431892;28;20447;-52
2023/06/20 19:18:26;;;;;;;10.57;5.07;;;23.30;63.90;;;;;;8414660;28;19964;-52
2023/06/20 19:22:27;;;;;;;;;;;23.30;63.40;;;;;;8430451;28;20093;-50
2023/06/20 19:26:28;;;;;;;13.87;5.50;;;23.40;64.00;;;;;;8431810;28;19935;-52
2023/06/20 19:30:29;;;;;;;15.20;6.55;;;23.30;63.50;;;;;;8430354;28;20039;-54
2023/06/20 19:34:30;;;;;;;12.38;6.03;;;23.40;63.40;;;;;;8427460;28;20036;-57
2023/06/20 19:38:31;;;;;;;13.55;6.25;;;23.30;63.40;;;;;;8431047;28;20114;-52
2023/06/20 19:42:32;;;;;;;17.45;8.60;;;23.40;63.60;;;;;;8430852;28;20050;-53
2023/06/20 19:46:32;;;;;;;22.77;7.97;;;23.40;63.20;;;;;;8431144;28;20039;-53
2023/06/20 19:50:33;;;;;;;;;;;23.40;63.20;;;;;;8429529;28;20478;-54
2023/06/20 19:54:33;;;;;;;23.90;8.63;;;23.40;63.20;;;;;;8430632;28;19919;-50
2023/06/20 19:58:34;;;;;;;;;;;23.40;63.10;;;;;;8430701;28;20513;-55
2023/06/20 20:02:35;;;;;;;27.97;10.53;;;23.30;63.20;;;;;;8428373;28;19927;-51
2023/06/20 20:06:39;;;;;;;;;;;23.40;63.00;;;;;;8414239;28;20056;-53
2023/06/20 20:10:39;;;;;;;29.15;10.55;;;23.40;63.00;;;;;;8429331;28;19920;-55
2023/06/20 20:14:40;;;;;;;25.75;10.98;;;23.40;62.90;;;;;;8429365;27;20734;-54
2023/06/20 20:18:41;;;;;;;32.28;10.95;;;23.30;62.60;;;;;;8430129;28;20039;-55
2023/06/20 20:22:41;;;;;;;;;;;23.40;62.80;;;;;;8428314;28;20112;-54
2023/06/20 20:26:42;;;;;;;33.70;11.73;;;23.40;62.30;;;;;;8428430;28;20368;-54
2023/06/20 20:30:43;;;;;;;27.30;11.88;;;23.40;62.60;;;;;;8428603;28;20061;-53
2023/06/20 20:34:44;;;;;;;27.45;12.68;;;23.40;63.20;;;;;;8429900;28;20043;-51
2023/06/20 20:38:45;;;;;;;30.35;12.98;;;23.40;62.50;;;;;;8428396;28;20401;-51
2023/06/20 20:42:48;;;;;;;32.45;12.93;;;23.40;62.50;;;;;;8428822;28;20027;-55
2023/06/20 20:46:49;;;;;;;26.92;12.98;;;23.50;62.20;;;;;;8428299;28;20040;-54
2023/06/20 20:50:52;;;;;;;;;;;23.60;62.00;;;;;;8429281;28;20043;-56
2023/06/20 20:54:53;;;;;;;35.05;13.15;;;23.80;61.50;;;;;;8427394;28;20365;-52
2023/06/20 20:58:54;;;;;;;44.47;15.32;;;23.80;61.70;;;;;;8427260;28;20478;-52
2023/06/20 21:02:55;;;;;;;;;;;23.90;60.30;;;;;;8428783;28;20107;-50